AKT181 CYWG-CYHM
Flight info
| Callsign | AKT181 |
|---|---|
| Flight time | N/A |
| Altitude | 37000 |
| Route | ELETO DCT GROLE DCT ROX DCT WIEDS Q834 DLH DCT CEWDA Q812 ZOHAN DCT HOCKE DCT AVSOX AVSOX2 |
| Aircraft | B737/M-SDE2E3FGHIRWXY/LB1 |
Departure
| Time | N/A |
|---|---|
| Airport | Winnipeg / James Armstrong Richardson International Airport (CYWG) |
Arrival
| Time | 2026-04-21 02:59 |
|---|---|
| Airport | John C. Munro Hamilton International Airport (CYHM) |
| Time | Latitude | Longitude | Altitude | Speed | Heading |
|---|---|---|---|---|---|
| 2026-04-21 02:34 | 43.93362 | -84.38827 | 37343 ft | 490 kts | 103° |
| 2026-04-21 02:34 | 43.81282 | -84.03638 | 37324 ft | 509 kts | 119° |
| 2026-04-21 02:34 | 43.65917 | -83.70744 | 37216 ft | 504 kts | 117° |
| 2026-04-21 02:35 | 43.52829 | -83.37076 | 37266 ft | 493 kts | 112° |
| 2026-04-21 02:35 | 43.28261 | -82.76406 | 37153 ft | 472 kts | 114° |
| 2026-04-21 02:35 | 43.26871 | -82.72401 | 37180 ft | 450 kts | 103° |
| 2026-04-21 02:36 | 43.25985 | -82.68366 | 36939 ft | 437 kts | 95° |
| 2026-04-21 02:36 | 43.25544 | -82.64312 | 36302 ft | 433 kts | 87° |
| 2026-04-21 02:36 | 43.25243 | -82.60188 | 35774 ft | 434 kts | 87° |
| 2026-04-21 02:36 | 43.24928 | -82.56048 | 35222 ft | 436 kts | 87° |
| 2026-04-21 02:37 | 43.24599 | -82.51902 | 34778 ft | 435 kts | 87° |
| 2026-04-21 02:37 | 43.24260 | -82.47840 | 34751 ft | 422 kts | 87° |
| 2026-04-21 02:37 | 43.24149 | -82.46542 | 34710 ft | 419 kts | 87° |
| 2026-04-21 02:38 | 43.22889 | -82.31542 | 34504 ft | 427 kts | 87° |
| 2026-04-21 02:38 | 43.22549 | -82.27471 | 34443 ft | 431 kts | 87° |
| 2026-04-21 02:39 | 43.21848 | -82.19344 | 34285 ft | 431 kts | 87° |
| 2026-04-21 02:39 | 43.21491 | -82.15194 | 34041 ft | 445 kts | 87° |
| 2026-04-21 02:39 | 43.21127 | -82.10899 | 33806 ft | 460 kts | 88° |
| 2026-04-21 02:39 | 43.20749 | -82.06493 | 33555 ft | 470 kts | 88° |
| 2026-04-21 02:40 | 43.20360 | -82.02040 | 33314 ft | 482 kts | 88° |
| 2026-04-21 02:40 | 43.19952 | -81.97397 | 33072 ft | 495 kts | 88° |
| 2026-04-21 02:40 | 43.19532 | -81.92661 | 32828 ft | 503 kts | 89° |
| 2026-04-21 02:40 | 43.19101 | -81.87883 | 32566 ft | 505 kts | 89° |
| 2026-04-21 02:41 | 43.18664 | -81.83095 | 32299 ft | 505 kts | 89° |
| 2026-04-21 02:41 | 43.18233 | -81.78383 | 32042 ft | 505 kts | 89° |
| 2026-04-21 02:41 | 43.17796 | -81.73602 | 31784 ft | 504 kts | 89° |
| 2026-04-21 02:41 | 43.17362 | -81.68841 | 31529 ft | 504 kts | 89° |
| 2026-04-21 02:42 | 43.16927 | -81.64075 | 31318 ft | 503 kts | 89° |
| 2026-04-21 02:42 | 43.16489 | -81.59305 | 31071 ft | 502 kts | 89° |
| 2026-04-21 02:42 | 43.16058 | -81.54609 | 30822 ft | 502 kts | 89° |
| 2026-04-21 02:42 | 43.15618 | -81.49844 | 30579 ft | 501 kts | 89° |
| 2026-04-21 02:43 | 43.15179 | -81.45110 | 30312 ft | 500 kts | 89° |
| 2026-04-21 02:43 | 43.14744 | -81.40447 | 30026 ft | 499 kts | 89° |
| 2026-04-21 02:43 | 43.14302 | -81.35725 | 29748 ft | 498 kts | 89° |
| 2026-04-21 02:43 | 43.13858 | -81.31014 | 29458 ft | 496 kts | 89° |
| 2026-04-21 02:44 | 43.13415 | -81.26342 | 28852 ft | 492 kts | 89° |
| 2026-04-21 02:44 | 43.12973 | -81.21717 | 28202 ft | 485 kts | 89° |
| 2026-04-21 02:44 | 43.12543 | -81.17231 | 27515 ft | 479 kts | 90° |
| 2026-04-21 02:44 | 43.12111 | -81.12745 | 27104 ft | 468 kts | 90° |
| 2026-04-21 02:45 | 43.11597 | -81.07445 | 26796 ft | 456 kts | 90° |
| 2026-04-21 02:45 | 43.10183 | -80.92779 | 25487 ft | 452 kts | 90° |
| 2026-04-21 02:45 | 43.08511 | -80.75695 | 22728 ft | 454 kts | 92° |
| 2026-04-21 02:45 | 43.06890 | -80.58887 | 19942 ft | 434 kts | 90° |
| 2026-04-21 02:46 | 43.06501 | -80.42750 | 17266 ft | 414 kts | 86° |
| 2026-04-21 02:46 | 43.06175 | -80.27271 | 14690 ft | 397 kts | 89° |
| 2026-04-21 02:46 | 43.05729 | -80.12706 | 12188 ft | 380 kts | 89° |
| 2026-04-21 02:46 | 43.05367 | -80.01038 | 10656 ft | 354 kts | 89° |
| 2026-04-21 02:47 | 43.05255 | -79.97588 | 10609 ft | 334 kts | 89° |
| 2026-04-21 02:47 | 43.05155 | -79.94466 | 10477 ft | 321 kts | 89° |
| 2026-04-21 02:47 | 43.05060 | -79.91513 | 10361 ft | 308 kts | 89° |
| 2026-04-21 02:47 | 43.04968 | -79.88662 | 10317 ft | 294 kts | 89° |
| 2026-04-21 02:48 | 43.04879 | -79.85827 | 9740 ft | 299 kts | 89° |
| 2026-04-21 02:48 | 43.04789 | -79.83010 | 9435 ft | 293 kts | 89° |
| 2026-04-21 02:48 | 43.04698 | -79.80268 | 9292 ft | 283 kts | 89° |
| 2026-04-21 02:48 | 43.04608 | -79.77617 | 9164 ft | 273 kts | 89° |
| 2026-04-21 02:49 | 43.04521 | -79.75073 | 9032 ft | 263 kts | 89° |
| 2026-04-21 02:49 | 43.04265 | -79.72640 | 8769 ft | 263 kts | 105° |
| 2026-04-21 02:49 | 43.03685 | -79.70285 | 8502 ft | 260 kts | 107° |
| 2026-04-21 02:49 | 43.03114 | -79.67948 | 8240 ft | 258 kts | 106° |
| 2026-04-21 02:50 | 43.02565 | -79.65629 | 7966 ft | 255 kts | 106° |
| 2026-04-21 02:50 | 43.02027 | -79.63320 | 7706 ft | 253 kts | 106° |
| 2026-04-21 02:50 | 43.01507 | -79.61068 | 7450 ft | 250 kts | 105° |
| 2026-04-21 02:50 | 43.01390 | -79.58784 | 7347 ft | 234 kts | 72° |
| 2026-04-21 02:51 | 43.02116 | -79.56915 | 7149 ft | 217 kts | 41° |
| 2026-04-21 02:51 | 43.03306 | -79.55774 | 6876 ft | 203 kts | 17° |
| 2026-04-21 02:51 | 43.04628 | -79.55436 | 6617 ft | 191 kts | 353° |
| 2026-04-21 02:51 | 43.05880 | -79.55837 | 6389 ft | 182 kts | 332° |
| 2026-04-21 02:52 | 43.06940 | -79.56769 | 6173 ft | 182 kts | 315° |
| 2026-04-21 02:52 | 43.07699 | -79.58155 | 5941 ft | 183 kts | 296° |
| 2026-04-21 02:52 | 43.08290 | -79.59707 | 5718 ft | 185 kts | 297° |
| 2026-04-21 02:52 | 43.08893 | -79.61277 | 5369 ft | 188 kts | 296° |
| 2026-04-21 02:53 | 43.09487 | -79.62834 | 5131 ft | 182 kts | 296° |
| 2026-04-21 02:53 | 43.10060 | -79.64341 | 4893 ft | 180 kts | 296° |
| 2026-04-21 02:53 | 43.10636 | -79.65866 | 4658 ft | 181 kts | 296° |
| 2026-04-21 02:53 | 43.11217 | -79.67405 | 4421 ft | 182 kts | 296° |
| 2026-04-21 02:54 | 43.11796 | -79.68939 | 4165 ft | 181 kts | 296° |
| 2026-04-21 02:54 | 43.12365 | -79.70472 | 3931 ft | 180 kts | 292° |
| 2026-04-21 02:54 | 43.12802 | -79.72050 | 3706 ft | 177 kts | 287° |
| 2026-04-21 02:54 | 43.13159 | -79.73619 | 3457 ft | 167 kts | 286° |
| 2026-04-21 02:55 | 43.13486 | -79.75077 | 3248 ft | 153 kts | 285° |
| 2026-04-21 02:55 | 43.13787 | -79.76417 | 3071 ft | 144 kts | 285° |
| 2026-04-21 02:55 | 43.14078 | -79.77711 | 2887 ft | 142 kts | 285° |
| 2026-04-21 02:55 | 43.14367 | -79.78991 | 2681 ft | 137 kts | 285° |
| 2026-04-21 02:56 | 43.14635 | -79.80177 | 2498 ft | 127 kts | 285° |
| 2026-04-21 02:56 | 43.15138 | -79.82409 | 2199 ft | 122 kts | 285° |
| 2026-04-21 02:56 | 43.15387 | -79.83510 | 2030 ft | 122 kts | 285° |
| 2026-04-21 02:57 | 43.15637 | -79.84617 | 1870 ft | 121 kts | 286° |
| 2026-04-21 02:57 | 43.15888 | -79.85727 | 1704 ft | 122 kts | 286° |
| 2026-04-21 02:57 | 43.16142 | -79.86847 | 1530 ft | 123 kts | 286° |
| 2026-04-21 02:57 | 43.16397 | -79.87967 | 1361 ft | 123 kts | 286° |
| 2026-04-21 02:58 | 43.16650 | -79.89077 | 1217 ft | 123 kts | 285° |
| 2026-04-21 02:58 | 43.16905 | -79.90203 | 1067 ft | 124 kts | 285° |
| 2026-04-21 02:58 | 43.17161 | -79.91341 | 912 ft | 123 kts | 285° |
| 2026-04-21 02:58 | 43.17403 | -79.92402 | 780 ft | 107 kts | 285° |
| 2026-04-21 02:59 | 43.17577 | -79.93179 | 779 ft | 58 kts | 287° |
| 2026-04-21 02:59 | 43.17651 | -79.93508 | 776 ft | 16 kts | 289° |
| 2026-04-21 02:59 | 43.17655 | -79.93640 | 777 ft | 13 kts | 228° |
| 2026-04-21 02:59 | 43.17592 | -79.93679 | 777 ft | 9 kts | 188° |
| 2026-04-21 03:00 | 43.17531 | -79.93679 | 777 ft | 9 kts | 160° |
| 2026-04-21 03:00 | 43.17497 | -79.93599 | 777 ft | 13 kts | 95° |
| 2026-04-21 03:00 | 43.17461 | -79.93453 | 780 ft | 19 kts | 108° |
| 2026-04-21 03:00 | 43.17418 | -79.93283 | 777 ft | 19 kts | 106° |
| 2026-04-21 03:01 | 43.17375 | -79.93119 | 777 ft | 18 kts | 128° |
| 2026-04-21 03:01 | 43.17309 | -79.93054 | 777 ft | 18 kts | 149° |
| 2026-04-21 03:01 | 43.17170 | -79.92946 | 777 ft | 17 kts | 150° |
| 2026-04-21 03:01 | 43.17102 | -79.92894 | 777 ft | 16 kts | 150° |
| 2026-04-21 03:02 | 43.16960 | -79.92785 | 776 ft | 18 kts | 151° |
| 2026-04-21 03:02 | 43.16889 | -79.92728 | 776 ft | 17 kts | 149° |
| 2026-04-21 03:02 | 43.16789 | -79.92646 | 776 ft | 17 kts | 149° |
| 2026-04-21 03:02 | 43.16691 | -79.92570 | 776 ft | 16 kts | 151° |
| 2026-04-21 03:03 | 43.16595 | -79.92498 | 776 ft | 15 kts | 164° |
| 2026-04-21 03:03 | 43.16507 | -79.92530 | 776 ft | 9 kts | 200° |
| 2026-04-21 03:03 | 43.16473 | -79.92547 | 776 ft | 7 kts | 197° |
| 2026-04-21 03:03 | 43.16467 | -79.92549 | 776 ft | 0 kts | 197° |
| 2026-04-21 03:04 | 43.16461 | -79.92552 | 776 ft | 5 kts | 197° |
| 2026-04-21 03:04 | 43.16432 | -79.92564 | 776 ft | 3 kts | 198° |
| 2026-04-21 03:04 | 43.16422 | -79.92569 | 776 ft | 0 kts | 197° |
| 2026-04-21 03:04 | 43.16416 | -79.92571 | 776 ft | 0 kts | 198° |
| 2026-04-21 03:05 | 43.16410 | -79.92574 | 776 ft | 0 kts | 198° |